Terminal Aerodrome Forecast
Issued by NWS North Platte, NE

Home | Current Version | Previous Version | Graphics & Text | Print | Product List | Glossary Off
Versions: 1 2 3 4 5 6 7 8 9 10 11 12 13 14 15 16

000
FTUS43 KLBF 270154 AAC
TAFVTN
TAF AMD
KVTN 270154Z 2702/2724 36020G30KT P6SM -TSRA BKN040CB BKN120
      TEMPO 2702/2704 VRB25G50KT 3SM TSRA BKN040CB OVC120
     FM270400 30012KT P6SM -SHRA BKN050 OVC150
     FM270600 36010KT P6SM BKN150
     FM271000 36008KT P6SM BKN015 OVC150
     FM271500 36008KT P6SM SCT015 BKN150
     FM271800 01010KT P6SM SCT060 BKN150=

USA.gov is the U.S. government's official web portal to all federal, state and local government web resources and services.